sensor_id;sensor_type;location;lat;lon;timestamp;temperature;humidity
5196;DHT22;2617;51.006;12.436;2023-01-26T00:01:07;-0.30;99.90
5196;DHT22;2617;51.006;12.436;2023-01-26T00:06:11;-0.30;99.90
5196;DHT22;2617;51.006;12.436;2023-01-26T00:11:13;-0.30;99.90
5196;DHT22;2617;51.006;12.436;2023-01-26T00:16:15;-0.30;99.90
5196;DHT22;2617;51.006;12.436;2023-01-26T00:21:19;-0.30;99.90
5196;DHT22;2617;51.006;12.436;2023-01-26T00:26:22;-0.40;99.90
5196;DHT22;2617;51.006;12.436;2023-01-26T00:31:25;-0.40;99.90
5196;DHT22;2617;51.006;12.436;2023-01-26T00:36:27;-0.40;99.90
5196;DHT22;2617;51.006;12.436;2023-01-26T00:41:29;-0.40;99.90
5196;DHT22;2617;51.006;12.436;2023-01-26T00:46:37;-0.40;99.90
5196;DHT22;2617;51.006;12.436;2023-01-26T00:51:40;-0.40;99.90
5196;DHT22;2617;51.006;12.436;2023-01-26T00:56:43;-0.40;99.90
5196;DHT22;2617;51.006;12.436;2023-01-26T01:01:45;-0.50;99.90
5196;DHT22;2617;51.006;12.436;2023-01-26T01:06:48;-0.50;99.90
5196;DHT22;2617;51.006;12.436;2023-01-26T01:11:51;-0.50;99.90
5196;DHT22;2617;51.006;12.436;2023-01-26T01:16:53;-0.50;99.90
5196;DHT22;2617;51.006;12.436;2023-01-26T01:21:55;-0.50;99.90
5196;DHT22;2617;51.006;12.436;2023-01-26T01:26:58;-0.50;99.90
5196;DHT22;2617;51.006;12.436;2023-01-26T01:32:01;-0.50;99.90
5196;DHT22;2617;51.006;12.436;2023-01-26T01:37:04;-0.60;99.90
5196;DHT22;2617;51.006;12.436;2023-01-26T01:42:07;-0.60;99.90
5196;DHT22;2617;51.006;12.436;2023-01-26T01:47:11;-0.60;99.90
5196;DHT22;2617;51.006;12.436;2023-01-26T01:52:15;-0.60;99.90
5196;DHT22;2617;51.006;12.436;2023-01-26T01:57:18;-0.60;99.90
5196;DHT22;2617;51.006;12.436;2023-01-26T02:02:20;-0.50;99.90
5196;DHT22;2617;51.006;12.436;2023-01-26T02:07:22;-0.60;99.90
5196;DHT22;2617;51.006;12.436;2023-01-26T02:12:26;-0.60;99.90
5196;DHT22;2617;51.006;12.436;2023-01-26T02:17:28;-0.60;99.90
5196;DHT22;2617;51.006;12.436;2023-01-26T02:22:41;-0.60;99.90
5196;DHT22;2617;51.006;12.436;2023-01-26T02:27:49;-0.50;99.90
5196;DHT22;2617;51.006;12.436;2023-01-26T02:32:53;-0.60;99.90
5196;DHT22;2617;51.006;12.436;2023-01-26T02:37:56;-0.60;99.90
5196;DHT22;2617;51.006;12.436;2023-01-26T02:42:58;-0.70;99.90
5196;DHT22;2617;51.006;12.436;2023-01-26T02:48:01;-0.70;99.90
5196;DHT22;2617;51.006;12.436;2023-01-26T02:53:03;-0.70;99.90
5196;DHT22;2617;51.006;12.436;2023-01-26T02:58:05;-0.70;99.90
5196;DHT22;2617;51.006;12.436;2023-01-26T03:03:12;-0.70;99.90
5196;DHT22;2617;51.006;12.436;2023-01-26T03:08:16;-0.70;99.90
5196;DHT22;2617;51.006;12.436;2023-01-26T03:13:19;-0.70;99.90
5196;DHT22;2617;51.006;12.436;2023-01-26T03:18:22;-0.70;99.90
5196;DHT22;2617;51.006;12.436;2023-01-26T03:23:30;-0.70;99.90
5196;DHT22;2617;51.006;12.436;2023-01-26T03:28:38;-0.80;99.90
5196;DHT22;2617;51.006;12.436;2023-01-26T03:33:41;-0.80;99.90
5196;DHT22;2617;51.006;12.436;2023-01-26T03:38:43;-0.80;99.90
5196;DHT22;2617;51.006;12.436;2023-01-26T03:43:45;-0.80;99.90
5196;DHT22;2617;51.006;12.436;2023-01-26T03:48:53;-0.90;99.90
5196;DHT22;2617;51.006;12.436;2023-01-26T03:54:01;-0.80;99.90
5196;DHT22;2617;51.006;12.436;2023-01-26T03:59:09;-0.80;99.90
5196;DHT22;2617;51.006;12.436;2023-01-26T04:04:12;-0.80;99.90
5196;DHT22;2617;51.006;12.436;2023-01-26T04:09:21;-0.80;99.90
5196;DHT22;2617;51.006;12.436;2023-01-26T04:14:24;-0.80;99.90
5196;DHT22;2617;51.006;12.436;2023-01-26T04:19:33;-0.80;99.90
5196;DHT22;2617;51.006;12.436;2023-01-26T04:24:40;-0.80;99.90
5196;DHT22;2617;51.006;12.436;2023-01-26T04:29:43;-0.80;99.90
5196;DHT22;2617;51.006;12.436;2023-01-26T04:34:46;-0.80;99.90
5196;DHT22;2617;51.006;12.436;2023-01-26T04:39:48;-0.90;99.90
5196;DHT22;2617;51.006;12.436;2023-01-26T04:44:52;-0.90;99.90
5196;DHT22;2617;51.006;12.436;2023-01-26T04:49:55;-0.80;99.90
5196;DHT22;2617;51.006;12.436;2023-01-26T04:54:58;-0.90;99.90
5196;DHT22;2617;51.006;12.436;2023-01-26T05:00:00;-0.90;99.90
5196;DHT22;2617;51.006;12.436;2023-01-26T05:05:03;-0.90;99.90
5196;DHT22;2617;51.006;12.436;2023-01-26T05:10:06;-0.90;99.90
5196;DHT22;2617;51.006;12.436;2023-01-26T05:15:09;-0.90;99.90
5196;DHT22;2617;51.006;12.436;2023-01-26T05:20:12;-0.90;99.90
5196;DHT22;2617;51.006;12.436;2023-01-26T05:25:15;-0.90;99.90
5196;DHT22;2617;51.006;12.436;2023-01-26T05:30:17;-0.90;99.90
5196;DHT22;2617;51.006;12.436;2023-01-26T05:35:21;-1.00;99.90
5196;DHT22;2617;51.006;12.436;2023-01-26T05:40:23;-0.90;99.90
5196;DHT22;2617;51.006;12.436;2023-01-26T05:45:27;-1.00;99.90
5196;DHT22;2617;51.006;12.436;2023-01-26T05:50:29;-1.00;99.90
5196;DHT22;2617;51.006;12.436;2023-01-26T05:55:32;-1.00;99.90
5196;DHT22;2617;51.006;12.436;2023-01-26T06:00:35;-1.00;99.90
5196;DHT22;2617;51.006;12.436;2023-01-26T06:05:37;-1.10;99.90
5196;DHT22;2617;51.006;12.436;2023-01-26T06:10:39;-1.10;99.90
5196;DHT22;2617;51.006;12.436;2023-01-26T06:15:42;-1.10;99.90
5196;DHT22;2617;51.006;12.436;2023-01-26T06:20:45;-1.10;99.90
5196;DHT22;2617;51.006;12.436;2023-01-26T06:25:49;-1.20;99.90
5196;DHT22;2617;51.006;12.436;2023-01-26T06:30:51;-1.20;99.90
5196;DHT22;2617;51.006;12.436;2023-01-26T06:35:53;-1.10;99.90
5196;DHT22;2617;51.006;12.436;2023-01-26T06:40:59;-1.10;99.90
5196;DHT22;2617;51.006;12.436;2023-01-26T06:46:02;-1.10;99.90
5196;DHT22;2617;51.006;12.436;2023-01-26T06:51:34;-1.10;99.90
5196;DHT22;2617;51.006;12.436;2023-01-26T06:56:40;-1.10;99.90
5196;DHT22;2617;51.006;12.436;2023-01-26T07:01:43;-1.10;99.90
5196;DHT22;2617;51.006;12.436;2023-01-26T07:06:44;-1.10;99.90
5196;DHT22;2617;51.006;12.436;2023-01-26T07:11:47;-1.10;99.90
5196;DHT22;2617;51.006;12.436;2023-01-26T07:16:49;-1.10;99.90
5196;DHT22;2617;51.006;12.436;2023-01-26T07:21:52;-1.10;99.90
5196;DHT22;2617;51.006;12.436;2023-01-26T07:26:54;-1.10;99.90
5196;DHT22;2617;51.006;12.436;2023-01-26T07:31:56;-1.10;99.90
5196;DHT22;2617;51.006;12.436;2023-01-26T07:36:59;-1.10;99.90
5196;DHT22;2617;51.006;12.436;2023-01-26T07:42:01;-1.00;99.90
5196;DHT22;2617;51.006;12.436;2023-01-26T07:47:04;-1.00;99.90
5196;DHT22;2617;51.006;12.436;2023-01-26T07:52:06;-1.00;99.90
5196;DHT22;2617;51.006;12.436;2023-01-26T07:57:10;-1.00;99.90
5196;DHT22;2617;51.006;12.436;2023-01-26T08:02:12;-0.90;99.90
5196;DHT22;2617;51.006;12.436;2023-01-26T08:07:15;-1.00;99.90
5196;DHT22;2617;51.006;12.436;2023-01-26T08:12:18;-1.00;99.90
5196;DHT22;2617;51.006;12.436;2023-01-26T08:17:20;-1.00;99.90
5196;DHT22;2617;51.006;12.436;2023-01-26T08:22:23;-1.00;99.90
5196;DHT22;2617;51.006;12.436;2023-01-26T08:27:25;-1.10;99.90
5196;DHT22;2617;51.006;12.436;2023-01-26T08:32:28;-1.10;99.90
5196;DHT22;2617;51.006;12.436;2023-01-26T08:37:32;-1.10;99.90
5196;DHT22;2617;51.006;12.436;2023-01-26T08:42:34;-1.10;99.90
5196;DHT22;2617;51.006;12.436;2023-01-26T08:47:37;-1.10;99.90
5196;DHT22;2617;51.006;12.436;2023-01-26T08:52:39;-1.00;99.90
5196;DHT22;2617;51.006;12.436;2023-01-26T08:57:41;-1.40;99.90
5196;DHT22;2617;51.006;12.436;2023-01-26T09:02:44;-1.00;99.90
5196;DHT22;2617;51.006;12.436;2023-01-26T09:07:46;-1.10;99.90
5196;DHT22;2617;51.006;12.436;2023-01-26T09:12:49;-1.00;99.90
5196;DHT22;2617;51.006;12.436;2023-01-26T09:17:51;-1.00;99.90
5196;DHT22;2617;51.006;12.436;2023-01-26T09:22:54;-1.00;99.90
5196;DHT22;2617;51.006;12.436;2023-01-26T09:27:57;-1.00;99.90
5196;DHT22;2617;51.006;12.436;2023-01-26T09:33:00;-1.00;99.90
5196;DHT22;2617;51.006;12.436;2023-01-26T09:38:02;-1.00;99.90
5196;DHT22;2617;51.006;12.436;2023-01-26T09:49:04;-0.90;99.90
5196;DHT22;2617;51.006;12.436;2023-01-26T09:59:52;-1.00;99.90
5196;DHT22;2617;51.006;12.436;2023-01-26T10:04:53;-1.00;99.90
5196;DHT22;2617;51.006;12.436;2023-01-26T10:09:55;-0.90;99.90
5196;DHT22;2617;51.006;12.436;2023-01-26T10:15:00;-0.90;99.90
5196;DHT22;2617;51.006;12.436;2023-01-26T10:20:07;-1.00;99.90
5196;DHT22;2617;51.006;12.436;2023-01-26T10:25:16;-1.00;99.90
5196;DHT22;2617;51.006;12.436;2023-01-26T10:30:18;-1.00;99.90
5196;DHT22;2617;51.006;12.436;2023-01-26T10:35:22;-1.00;99.90
5196;DHT22;2617;51.006;12.436;2023-01-26T10:40:24;-1.00;99.90
5196;DHT22;2617;51.006;12.436;2023-01-26T10:45:30;-1.00;99.90
5196;DHT22;2617;51.006;12.436;2023-01-26T10:50:32;-1.00;99.90
5196;DHT22;2617;51.006;12.436;2023-01-26T10:55:34;-1.00;99.90
5196;DHT22;2617;51.006;12.436;2023-01-26T11:00:36;-1.00;99.90
5196;DHT22;2617;51.006;12.436;2023-01-26T11:05:39;-1.00;99.90
5196;DHT22;2617;51.006;12.436;2023-01-26T11:10:50;-0.90;99.90
5196;DHT22;2617;51.006;12.436;2023-01-26T11:15:50;-0.90;99.90
5196;DHT22;2617;51.006;12.436;2023-01-26T11:20:56;-1.00;99.90
5196;DHT22;2617;51.006;12.436;2023-01-26T11:26:10;-1.00;99.90
5196;DHT22;2617;51.006;12.436;2023-01-26T11:42:43;-0.90;99.90
5196;DHT22;2617;51.006;12.436;2023-01-26T11:48:16;-0.90;99.90
5196;DHT22;2617;51.006;12.436;2023-01-26T11:53:32;-0.90;99.90
5196;DHT22;2617;51.006;12.436;2023-01-26T11:58:43;-0.90;99.90
5196;DHT22;2617;51.006;12.436;2023-01-26T12:03:49;-0.90;99.90
5196;DHT22;2617;51.006;12.436;2023-01-26T12:08:52;-0.80;99.90
5196;DHT22;2617;51.006;12.436;2023-01-26T12:14:06;-0.70;99.90
5196;DHT22;2617;51.006;12.436;2023-01-26T12:24:42;-0.60;99.90
5196;DHT22;2617;51.006;12.436;2023-01-26T12:29:46;-0.70;99.90
5196;DHT22;2617;51.006;12.436;2023-01-26T12:34:49;-0.70;99.90
5196;DHT22;2617;51.006;12.436;2023-01-26T12:39:55;-0.80;99.90
5196;DHT22;2617;51.006;12.436;2023-01-26T12:45:15;-0.80;99.90
5196;DHT22;2617;51.006;12.436;2023-01-26T12:50:33;-0.80;99.90
5196;DHT22;2617;51.006;12.436;2023-01-26T12:55:41;-0.90;99.90
5196;DHT22;2617;51.006;12.436;2023-01-26T13:01:01;-0.90;99.90
5196;DHT22;2617;51.006;12.436;2023-01-26T13:06:21;-0.90;99.90
5196;DHT22;2617;51.006;12.436;2023-01-26T13:11:40;-1.00;99.90
5196;DHT22;2617;51.006;12.436;2023-01-26T13:16:42;-1.10;99.90
5196;DHT22;2617;51.006;12.436;2023-01-26T13:21:44;-1.00;99.90
5196;DHT22;2617;51.006;12.436;2023-01-26T13:26:52;-1.10;99.90
5196;DHT22;2617;51.006;12.436;2023-01-26T13:31:54;-1.10;99.90
5196;DHT22;2617;51.006;12.436;2023-01-26T13:36:58;-1.20;99.90
5196;DHT22;2617;51.006;12.436;2023-01-26T13:41:59;-1.20;99.90
5196;DHT22;2617;51.006;12.436;2023-01-26T13:47:06;-1.20;99.90
5196;DHT22;2617;51.006;12.436;2023-01-26T13:52:19;-1.30;99.90
5196;DHT22;2617;51.006;12.436;2023-01-26T13:57:25;-1.30;99.90
5196;DHT22;2617;51.006;12.436;2023-01-26T14:02:29;-1.30;99.90
5196;DHT22;2617;51.006;12.436;2023-01-26T14:07:34;-1.30;99.90
5196;DHT22;2617;51.006;12.436;2023-01-26T14:12:42;-1.30;99.90
5196;DHT22;2617;51.006;12.436;2023-01-26T14:17:47;-1.30;99.90
5196;DHT22;2617;51.006;12.436;2023-01-26T14:28:16;-1.30;99.90
5196;DHT22;2617;51.006;12.436;2023-01-26T14:33:18;-1.40;99.90
5196;DHT22;2617;51.006;12.436;2023-01-26T14:38:21;-1.40;99.90
5196;DHT22;2617;51.006;12.436;2023-01-26T14:43:23;-1.50;99.90
5196;DHT22;2617;51.006;12.436;2023-01-26T14:48:30;-1.60;99.90
5196;DHT22;2617;51.006;12.436;2023-01-26T14:53:31;-1.60;99.90
5196;DHT22;2617;51.006;12.436;2023-01-26T14:58:34;-1.70;99.90
5196;DHT22;2617;51.006;12.436;2023-01-26T15:03:36;-1.70;99.90
5196;DHT22;2617;51.006;12.436;2023-01-26T15:08:40;-1.60;99.90
5196;DHT22;2617;51.006;12.436;2023-01-26T15:13:42;-1.70;99.90
5196;DHT22;2617;51.006;12.436;2023-01-26T15:18:56;-1.70;99.90
5196;DHT22;2617;51.006;12.436;2023-01-26T15:23:49;-1.60;99.90
5196;DHT22;2617;51.006;12.436;2023-01-26T15:28:53;-1.60;99.90
5196;DHT22;2617;51.006;12.436;2023-01-26T15:33:55;-1.70;99.90
5196;DHT22;2617;51.006;12.436;2023-01-26T15:39:02;-1.60;99.90
5196;DHT22;2617;51.006;12.436;2023-01-26T15:44:04;-1.60;99.90
5196;DHT22;2617;51.006;12.436;2023-01-26T15:49:07;-1.60;99.90
5196;DHT22;2617;51.006;12.436;2023-01-26T15:54:10;-1.60;99.90
5196;DHT22;2617;51.006;12.436;2023-01-26T15:59:13;-1.60;99.90
5196;DHT22;2617;51.006;12.436;2023-01-26T16:04:16;-1.60;99.90
5196;DHT22;2617;51.006;12.436;2023-01-26T16:09:18;-1.60;99.90
5196;DHT22;2617;51.006;12.436;2023-01-26T16:14:21;-1.60;99.90
5196;DHT22;2617;51.006;12.436;2023-01-26T16:19:23;-1.60;99.90
5196;DHT22;2617;51.006;12.436;2023-01-26T16:24:25;-1.70;99.90
5196;DHT22;2617;51.006;12.436;2023-01-26T16:29:28;-1.70;99.90
5196;DHT22;2617;51.006;12.436;2023-01-26T16:34:31;-1.80;99.90
5196;DHT22;2617;51.006;12.436;2023-01-26T16:39:34;-1.80;99.90
5196;DHT22;2617;51.006;12.436;2023-01-26T16:44:36;-1.80;99.90
5196;DHT22;2617;51.006;12.436;2023-01-26T16:49:38;-1.80;99.90
5196;DHT22;2617;51.006;12.436;2023-01-26T16:54:41;-1.90;99.90
5196;DHT22;2617;51.006;12.436;2023-01-26T16:59:43;-1.90;99.90
5196;DHT22;2617;51.006;12.436;2023-01-26T17:04:46;-1.90;99.90
5196;DHT22;2617;51.006;12.436;2023-01-26T17:09:49;-1.90;99.90
5196;DHT22;2617;51.006;12.436;2023-01-26T17:14:51;-1.90;99.90
5196;DHT22;2617;51.006;12.436;2023-01-26T17:19:54;-1.90;99.90
5196;DHT22;2617;51.006;12.436;2023-01-26T17:24:56;-1.90;99.90
5196;DHT22;2617;51.006;12.436;2023-01-26T17:29:59;-2.00;99.90
5196;DHT22;2617;51.006;12.436;2023-01-26T17:35:02;-2.10;99.90
5196;DHT22;2617;51.006;12.436;2023-01-26T17:40:06;-2.10;99.90
5196;DHT22;2617;51.006;12.436;2023-01-26T17:45:10;-2.10;99.90
5196;DHT22;2617;51.006;12.436;2023-01-26T17:50:12;-2.10;99.90
5196;DHT22;2617;51.006;12.436;2023-01-26T17:55:15;-2.10;99.90
5196;DHT22;2617;51.006;12.436;2023-01-26T18:00:18;-2.00;99.90
5196;DHT22;2617;51.006;12.436;2023-01-26T18:05:21;-2.00;99.90
5196;DHT22;2617;51.006;12.436;2023-01-26T18:10:24;-2.00;99.90
5196;DHT22;2617;51.006;12.436;2023-01-26T18:15:27;-1.90;99.90
5196;DHT22;2617;51.006;12.436;2023-01-26T18:20:30;-2.00;99.90
5196;DHT22;2617;51.006;12.436;2023-01-26T18:25:33;-1.90;99.90
5196;DHT22;2617;51.006;12.436;2023-01-26T18:30:36;-1.90;99.90
5196;DHT22;2617;51.006;12.436;2023-01-26T18:35:38;-1.80;99.90
5196;DHT22;2617;51.006;12.436;2023-01-26T18:40:40;-1.80;99.90
5196;DHT22;2617;51.006;12.436;2023-01-26T18:45:43;-1.80;99.90
5196;DHT22;2617;51.006;12.436;2023-01-26T18:50:47;-1.80;99.90
5196;DHT22;2617;51.006;12.436;2023-01-26T18:55:49;-1.80;99.90
5196;DHT22;2617;51.006;12.436;2023-01-26T19:00:53;-1.80;99.90
5196;DHT22;2617;51.006;12.436;2023-01-26T19:05:55;-1.80;99.90
5196;DHT22;2617;51.006;12.436;2023-01-26T19:11:06;-1.80;99.90
5196;DHT22;2617;51.006;12.436;2023-01-26T19:16:09;-1.80;99.90
5196;DHT22;2617;51.006;12.436;2023-01-26T19:21:11;-1.80;99.90
5196;DHT22;2617;51.006;12.436;2023-01-26T19:26:15;-1.80;99.90
5196;DHT22;2617;51.006;12.436;2023-01-26T19:31:18;-1.80;99.90
5196;DHT22;2617;51.006;12.436;2023-01-26T19:36:20;-1.80;99.90
5196;DHT22;2617;51.006;12.436;2023-01-26T19:41:23;-1.80;99.90
5196;DHT22;2617;51.006;12.436;2023-01-26T19:46:25;-1.80;99.90
5196;DHT22;2617;51.006;12.436;2023-01-26T19:51:28;-1.80;99.90
5196;DHT22;2617;51.006;12.436;2023-01-26T19:56:32;-1.80;99.90
5196;DHT22;2617;51.006;12.436;2023-01-26T20:01:34;-1.80;99.90
5196;DHT22;2617;51.006;12.436;2023-01-26T20:06:37;-1.80;99.90
5196;DHT22;2617;51.006;12.436;2023-01-26T20:11:39;-1.90;99.90
5196;DHT22;2617;51.006;12.436;2023-01-26T20:16:42;-1.80;99.90
5196;DHT22;2617;51.006;12.436;2023-01-26T20:21:45;-1.80;99.90
5196;DHT22;2617;51.006;12.436;2023-01-26T20:26:47;-1.80;99.90
5196;DHT22;2617;51.006;12.436;2023-01-26T20:31:50;-1.80;99.90
5196;DHT22;2617;51.006;12.436;2023-01-26T20:36:53;-1.80;99.90
5196;DHT22;2617;51.006;12.436;2023-01-26T20:41:55;-1.80;99.90
5196;DHT22;2617;51.006;12.436;2023-01-26T20:46:58;-1.80;99.90
5196;DHT22;2617;51.006;12.436;2023-01-26T20:52:00;-1.80;99.90
5196;DHT22;2617;51.006;12.436;2023-01-26T20:57:04;-1.80;99.90
5196;DHT22;2617;51.006;12.436;2023-01-26T21:02:12;-1.80;99.90
5196;DHT22;2617;51.006;12.436;2023-01-26T21:07:13;-1.80;99.90
5196;DHT22;2617;51.006;12.436;2023-01-26T21:12:16;-1.80;99.90
5196;DHT22;2617;51.006;12.436;2023-01-26T21:17:18;-1.80;99.90
5196;DHT22;2617;51.006;12.436;2023-01-26T21:22:21;-1.80;99.90
5196;DHT22;2617;51.006;12.436;2023-01-26T21:27:23;-1.80;99.90
5196;DHT22;2617;51.006;12.436;2023-01-26T21:32:25;-1.80;99.90
5196;DHT22;2617;51.006;12.436;2023-01-26T21:37:28;-1.80;99.90
5196;DHT22;2617;51.006;12.436;2023-01-26T21:42:31;-1.80;99.90
5196;DHT22;2617;51.006;12.436;2023-01-26T21:47:34;-1.80;99.90
5196;DHT22;2617;51.006;12.436;2023-01-26T21:52:37;-1.80;99.90
5196;DHT22;2617;51.006;12.436;2023-01-26T21:57:45;-1.80;99.90
5196;DHT22;2617;51.006;12.436;2023-01-26T22:02:53;-1.80;99.90
5196;DHT22;2617;51.006;12.436;2023-01-26T22:07:56;-1.80;99.90
5196;DHT22;2617;51.006;12.436;2023-01-26T22:12:58;-1.80;99.90
5196;DHT22;2617;51.006;12.436;2023-01-26T22:18:01;-1.80;99.90
5196;DHT22;2617;51.006;12.436;2023-01-26T22:23:03;-1.80;99.90
5196;DHT22;2617;51.006;12.436;2023-01-26T22:28:06;-1.80;99.90
5196;DHT22;2617;51.006;12.436;2023-01-26T22:33:08;-1.80;99.90
5196;DHT22;2617;51.006;12.436;2023-01-26T22:38:11;-1.80;99.90
5196;DHT22;2617;51.006;12.436;2023-01-26T22:43:13;-1.80;99.90
5196;DHT22;2617;51.006;12.436;2023-01-26T22:48:16;-1.80;99.90
5196;DHT22;2617;51.006;12.436;2023-01-26T22:53:19;-1.80;99.90
5196;DHT22;2617;51.006;12.436;2023-01-26T22:58:21;-1.80;99.90
5196;DHT22;2617;51.006;12.436;2023-01-26T23:03:24;-1.80;99.90
5196;DHT22;2617;51.006;12.436;2023-01-26T23:08:27;-1.80;99.90
5196;DHT22;2617;51.006;12.436;2023-01-26T23:13:29;-1.70;99.90
5196;DHT22;2617;51.006;12.436;2023-01-26T23:18:31;-1.70;99.90
5196;DHT22;2617;51.006;12.436;2023-01-26T23:23:33;-1.70;99.90
5196;DHT22;2617;51.006;12.436;2023-01-26T23:28:38;-1.80;99.90
5196;DHT22;2617;51.006;12.436;2023-01-26T23:33:40;-1.80;99.90
5196;DHT22;2617;51.006;12.436;2023-01-26T23:38:42;-1.70;99.90
5196;DHT22;2617;51.006;12.436;2023-01-26T23:43:45;-1.80;99.90
5196;DHT22;2617;51.006;12.436;2023-01-26T23:48:48;-1.80;99.90
5196;DHT22;2617;51.006;12.436;2023-01-26T23:53:50;-1.80;99.90
5196;DHT22;2617;51.006;12.436;2023-01-26T23:58:53;-1.80;99.90
